createdAt,value
2023-04-16T00:01:18.251Z,91.90
2023-04-16T00:03:53.412Z,92.00
2023-04-16T00:06:28.681Z,92.00
2023-04-16T00:09:03.676Z,91.90
2023-04-16T00:11:38.524Z,92.10
2023-04-16T00:14:13.369Z,92.10
2023-04-16T00:16:48.246Z,92.00
2023-04-16T00:19:23.209Z,92.10
2023-04-16T00:21:58.067Z,92.00
2023-04-16T00:24:32.933Z,91.90
2023-04-16T00:27:08.002Z,91.90
2023-04-16T00:29:42.868Z,91.90
2023-04-16T00:32:17.970Z,91.80
2023-04-16T00:34:52.827Z,91.90
2023-04-16T00:37:27.769Z,91.90
2023-04-16T00:40:02.722Z,92.00
2023-04-16T00:42:38.167Z,91.90
2023-04-16T00:45:13.079Z,91.90
2023-04-16T00:47:48.230Z,91.80
2023-04-16T00:50:23.716Z,91.80
2023-04-16T00:52:58.675Z,91.90
2023-04-16T00:55:34.629Z,91.90
2023-04-16T00:58:09.463Z,91.90
2023-04-16T01:00:44.297Z,91.90
2023-04-16T01:03:19.311Z,91.90
2023-04-16T01:05:54.309Z,91.90
2023-04-16T01:08:29.378Z,91.90
2023-04-16T01:11:05.303Z,92.00
2023-04-16T01:13:40.855Z,92.00
2023-04-16T01:16:15.760Z,92.00
2023-04-16T01:18:50.953Z,91.90
2023-04-16T01:21:26.533Z,91.90
2023-04-16T01:24:05.544Z,91.80
2023-04-16T01:26:41.243Z,92.00
2023-04-16T01:29:16.112Z,91.80
2023-04-16T01:31:51.319Z,91.80
2023-04-16T01:34:47.213Z,91.80
2023-04-16T01:37:22.501Z,91.90
2023-04-16T01:39:57.412Z,92.10
2023-04-16T01:42:32.519Z,92.10
2023-04-16T01:45:08.227Z,92.20
2023-04-16T01:47:43.287Z,92.20
2023-04-16T01:50:19.698Z,92.10
2023-04-16T01:52:54.570Z,92.10
2023-04-16T01:55:29.621Z,92.00
2023-04-16T01:58:04.467Z,92.00
2023-04-16T02:00:42.348Z,92.00
2023-04-16T02:03:18.537Z,92.00
2023-04-16T02:05:53.672Z,91.90
2023-04-16T02:08:28.653Z,91.90
2023-04-16T02:11:03.705Z,92.00
2023-04-16T02:13:38.598Z,92.00
2023-04-16T02:16:13.556Z,92.00
2023-04-16T02:18:58.886Z,92.10
2023-04-16T02:21:37.618Z,92.00
2023-04-16T02:24:12.604Z,92.00
2023-04-16T02:26:48.070Z,92.20
2023-04-16T02:29:25.984Z,92.10
2023-04-16T02:32:07.978Z,92.10
2023-04-16T02:34:43.613Z,92.20
2023-04-16T02:37:19.441Z,92.20
2023-04-16T02:39:54.345Z,92.10
2023-04-16T02:42:29.446Z,92.10
2023-04-16T02:45:04.721Z,92.10
2023-04-16T02:47:39.568Z,92.00
2023-04-16T02:50:14.572Z,92.00
2023-04-16T02:52:51.498Z,92.00
2023-04-16T02:55:26.475Z,92.00
2023-04-16T02:58:01.546Z,91.90
2023-04-16T03:00:38.002Z,92.00
2023-04-16T03:03:13.377Z,92.00
2023-04-16T03:05:48.847Z,91.90
2023-04-16T03:08:24.733Z,92.10
2023-04-16T03:10:59.586Z,92.00
2023-04-16T03:13:34.466Z,92.10
2023-04-16T03:16:09.441Z,92.10
2023-04-16T03:18:44.292Z,92.00
2023-04-16T03:21:19.184Z,91.90
2023-04-16T03:23:55.998Z,92.00
2023-04-16T03:26:30.937Z,92.00
2023-04-16T03:29:06.192Z,92.10
2023-04-16T03:31:41.424Z,91.90
2023-04-16T03:34:16.386Z,92.00
2023-04-16T03:36:51.676Z,92.00
2023-04-16T03:39:26.566Z,92.00
2023-04-16T03:42:02.239Z,92.00
2023-04-16T03:44:37.182Z,92.10
2023-04-16T03:47:12.155Z,92.10
2023-04-16T03:49:47.181Z,92.10
2023-04-16T03:52:22.392Z,92.00
2023-04-16T03:54:57.260Z,92.10
2023-04-16T03:57:35.080Z,92.10
2023-04-16T04:00:15.417Z,92.10
2023-04-16T04:03:01.069Z,92.20
2023-04-16T04:05:43.035Z,92.20
2023-04-16T04:08:20.764Z,92.20
2023-04-16T04:10:55.650Z,92.10
2023-04-16T04:13:32.229Z,92.10
2023-04-16T04:16:07.750Z,92.10
2023-04-16T04:18:44.298Z,92.20
2023-04-16T04:21:19.530Z,92.10
2023-04-16T04:23:56.148Z,92.00
2023-04-16T04:26:31.431Z,91.90
2023-04-16T04:29:06.539Z,92.00
2023-04-16T04:31:41.536Z,92.10
2023-04-16T04:34:16.656Z,92.10
2023-04-16T04:36:52.689Z,92.10
2023-04-16T04:39:28.202Z,92.20
2023-04-16T04:42:03.293Z,92.10
2023-04-16T04:44:38.263Z,92.10
2023-04-16T04:47:14.089Z,92.20
2023-04-16T04:49:49.018Z,92.10
2023-04-16T04:52:23.949Z,92.10
2023-04-16T04:54:59.263Z,92.10
2023-04-16T04:57:34.181Z,92.10
2023-04-16T05:00:10.930Z,92.10
2023-04-16T05:03:01.927Z,92.10
2023-04-16T05:05:37.226Z,92.00
2023-04-16T05:08:12.067Z,92.10
2023-04-16T05:10:46.936Z,92.10
2023-04-16T05:13:22.804Z,92.20
2023-04-16T05:15:58.500Z,92.10
2023-04-16T05:18:33.575Z,92.10
2023-04-16T05:21:08.452Z,92.00
2023-04-16T05:23:43.359Z,92.10
2023-04-16T05:26:18.355Z,92.20
2023-04-16T05:28:53.464Z,92.20
2023-04-16T05:31:28.393Z,92.30
2023-04-16T05:34:03.290Z,92.20
2023-04-16T05:36:38.207Z,92.10
2023-04-16T05:39:13.092Z,92.10
2023-04-16T05:41:48.071Z,92.10
2023-04-16T05:44:22.946Z,92.10
2023-04-16T05:46:57.880Z,92.10
2023-04-16T05:49:32.772Z,92.20
2023-04-16T05:52:07.664Z,92.20
2023-04-16T05:54:42.671Z,92.10
2023-04-16T05:57:17.509Z,92.10
2023-04-16T05:59:52.439Z,92.10
2023-04-16T06:02:27.457Z,92.10
2023-04-16T06:05:02.573Z,92.10
2023-04-16T06:07:37.543Z,92.00
2023-04-16T06:10:12.491Z,92.00
2023-04-16T06:12:47.529Z,92.10
2023-04-16T06:15:22.436Z,92.20
2023-04-16T06:18:00.300Z,92.10
2023-04-16T06:20:36.236Z,92.20
2023-04-16T06:23:11.200Z,92.20
2023-04-16T06:25:46.301Z,92.30
2023-04-16T06:28:21.338Z,92.30
2023-04-16T06:30:56.344Z,92.40
2023-04-16T06:33:32.200Z,92.30
2023-04-16T06:36:07.205Z,92.40
2023-04-16T06:38:42.556Z,92.40
2023-04-16T06:41:17.570Z,92.40
2023-04-16T06:43:52.686Z,92.30
2023-04-16T06:46:27.645Z,92.30
2023-04-16T06:49:02.832Z,92.20
2023-04-16T06:51:37.738Z,92.30
2023-04-16T06:54:12.724Z,92.30
2023-04-16T06:56:47.589Z,92.40
2023-04-16T06:59:22.448Z,92.40
2023-04-16T07:01:57.534Z,92.30
2023-04-16T07:04:32.483Z,92.20
2023-04-16T07:07:07.305Z,92.20
2023-04-16T07:09:42.198Z,92.10
2023-04-16T07:12:17.589Z,92.10
2023-04-16T07:14:52.990Z,92.20
2023-04-16T07:17:27.906Z,92.40
2023-04-16T07:20:02.778Z,92.40
2023-04-16T07:22:37.666Z,92.40
2023-04-16T07:25:12.618Z,92.30
2023-04-16T07:27:47.512Z,92.30
2023-04-16T07:30:22.508Z,92.30
2023-04-16T07:32:57.865Z,92.00
2023-04-16T07:35:32.983Z,91.90
2023-04-16T07:38:07.830Z,91.90
2023-04-16T07:40:42.949Z,92.00
2023-04-16T07:43:17.800Z,91.90
2023-04-16T07:45:52.736Z,91.90
2023-04-16T07:48:27.796Z,91.80
2023-04-16T07:51:02.827Z,91.90
2023-04-16T07:53:37.990Z,91.90
2023-04-16T07:56:12.916Z,91.90
2023-04-16T07:58:48.002Z,91.90
2023-04-16T08:01:22.896Z,92.00
2023-04-16T08:03:58.022Z,92.00
2023-04-16T08:06:36.397Z,92.10
2023-04-16T08:09:11.691Z,91.80
2023-04-16T08:11:47.002Z,91.70
2023-04-16T08:14:21.947Z,91.50
2023-04-16T08:16:59.918Z,91.70
2023-04-16T08:19:35.035Z,91.70
2023-04-16T08:22:09.924Z,91.70
2023-04-16T08:24:44.995Z,91.60
2023-04-16T08:27:20.458Z,91.80
2023-04-16T08:29:55.520Z,91.70
2023-04-16T08:32:30.494Z,91.70
2023-04-16T08:35:06.031Z,91.40
2023-04-16T08:37:41.129Z,91.60
2023-04-16T08:40:16.271Z,91.40
2023-04-16T08:42:59.044Z,91.40
2023-04-16T08:45:36.405Z,91.20
2023-04-16T08:48:12.160Z,91.40
2023-04-16T08:50:49.451Z,91.40
2023-04-16T08:53:43.747Z,91.50
2023-04-16T08:56:21.796Z,91.40
2023-04-16T08:58:58.527Z,91.40
2023-04-16T09:01:35.744Z,91.50
2023-04-16T09:04:11.514Z,91.60
2023-04-16T09:06:48.501Z,91.80
2023-04-16T09:09:23.772Z,91.70
2023-04-16T09:11:59.785Z,91.60
2023-04-16T09:14:36.033Z,90.80
2023-04-16T09:17:12.446Z,90.70
2023-04-16T09:19:47.488Z,90.50
2023-04-16T09:22:22.413Z,90.80
2023-04-16T09:24:57.391Z,90.80
2023-04-16T09:27:33.770Z,90.60
2023-04-16T09:30:27.996Z,90.60
2023-04-16T09:33:22.477Z,90.40
2023-04-16T09:35:57.899Z,90.30
2023-04-16T09:38:56.908Z,89.90
2023-04-16T09:41:39.481Z,89.70
2023-04-16T09:44:14.399Z,89.20
2023-04-16T09:46:49.479Z,89.70
2023-04-16T09:49:27.200Z,89.80
2023-04-16T09:52:02.446Z,89.50
2023-04-16T09:54:38.499Z,89.50
2023-04-16T09:57:13.600Z,89.90
2023-04-16T10:00:02.683Z,90.00
2023-04-16T10:02:43.101Z,89.90
2023-04-16T10:05:20.305Z,90.10
2023-04-16T10:08:01.771Z,90.30
2023-04-16T10:10:36.760Z,90.20
2023-04-16T10:13:14.455Z,90.30
2023-04-16T10:15:50.569Z,90.40
2023-04-16T10:18:25.933Z,90.50
2023-04-16T10:21:02.047Z,90.70
2023-04-16T10:23:38.875Z,91.10
2023-04-16T10:26:13.860Z,90.70
2023-04-16T10:28:49.093Z,90.50
2023-04-16T10:31:25.473Z,90.60
2023-04-16T10:34:01.082Z,90.60
2023-04-16T10:36:40.285Z,90.60
2023-04-16T10:39:22.465Z,90.50
2023-04-16T10:42:12.102Z,90.80
2023-04-16T10:44:47.137Z,90.70
2023-04-16T10:47:26.314Z,90.70
2023-04-16T10:50:01.381Z,90.80
2023-04-16T10:52:36.393Z,90.90
2023-04-16T10:55:17.416Z,91.10
2023-04-16T10:57:53.931Z,91.20
2023-04-16T11:00:28.929Z,90.70
2023-04-16T11:03:05.075Z,91.20
2023-04-16T11:05:47.151Z,90.80
2023-04-16T11:08:22.477Z,91.10
2023-04-16T11:10:59.042Z,91.10
2023-04-16T11:13:36.845Z,91.20
2023-04-16T11:16:16.773Z,91.20
2023-04-16T11:18:52.039Z,91.20
2023-04-16T11:21:27.118Z,91.20
2023-04-16T11:24:02.105Z,90.90
2023-04-16T11:26:36.978Z,91.00
2023-04-16T11:29:15.824Z,91.10
2023-04-16T11:31:54.794Z,91.10
2023-04-16T11:34:30.173Z,91.30
2023-04-16T11:37:05.327Z,91.40
2023-04-16T11:39:53.152Z,91.50
2023-04-16T11:42:30.487Z,91.50
2023-04-16T11:45:06.349Z,91.70
2023-04-16T11:47:52.957Z,91.60
2023-04-16T11:50:29.155Z,91.70
2023-04-16T11:53:06.241Z,91.50
2023-04-16T11:55:45.855Z,91.50
2023-04-16T11:58:22.333Z,91.80
2023-04-16T12:00:59.808Z,91.90
2023-04-16T12:03:46.844Z,92.00
2023-04-16T12:06:24.252Z,91.90
2023-04-16T12:09:01.367Z,92.00
2023-04-16T12:11:42.569Z,92.00
2023-04-16T12:14:17.494Z,92.00
2023-04-16T12:16:52.572Z,91.90
2023-04-16T12:19:27.634Z,92.10
2023-04-16T12:22:02.570Z,91.90
2023-04-16T12:24:37.859Z,91.80
2023-04-16T12:27:13.012Z,91.80
2023-04-16T12:30:07.198Z,91.60
2023-04-16T12:32:44.142Z,91.40
2023-04-16T12:35:33.637Z,91.40
2023-04-16T12:38:08.575Z,91.10
2023-04-16T12:40:43.521Z,91.30
2023-04-16T12:43:19.737Z,91.50
2023-04-16T12:45:54.812Z,91.50
2023-04-16T12:48:29.848Z,91.40
2023-04-16T12:51:06.467Z,91.30
2023-04-16T12:53:41.560Z,91.20
2023-04-16T12:56:16.712Z,91.10
2023-04-16T12:58:51.948Z,90.90
2023-04-16T13:01:26.869Z,91.10
2023-04-16T13:04:02.570Z,91.30
2023-04-16T13:06:38.428Z,91.10
2023-04-16T13:09:13.256Z,91.00
2023-04-16T13:11:48.382Z,90.80
2023-04-16T13:14:23.331Z,90.80
2023-04-16T13:16:58.240Z,90.80
2023-04-16T13:19:33.384Z,90.90
2023-04-16T13:22:09.422Z,91.30
2023-04-16T13:24:44.541Z,90.90
2023-04-16T13:27:20.399Z,91.10
2023-04-16T13:29:55.406Z,91.10
2023-04-16T13:32:30.742Z,91.00
2023-04-16T13:35:06.055Z,91.20
2023-04-16T13:37:40.981Z,91.10
2023-04-16T13:40:16.208Z,91.10
2023-04-16T13:42:51.620Z,91.00
2023-04-16T13:45:27.895Z,91.40
2023-04-16T13:48:03.271Z,91.60
2023-04-16T13:50:38.324Z,91.20
2023-04-16T13:53:13.270Z,91.20
2023-04-16T13:55:49.573Z,91.30
2023-04-16T13:58:25.869Z,91.30
2023-04-16T14:01:01.645Z,91.00
2023-04-16T14:03:38.447Z,91.20
2023-04-16T14:06:14.973Z,91.10
2023-04-16T14:08:49.888Z,91.20
2023-04-16T14:11:24.745Z,91.30
2023-04-16T14:13:59.712Z,91.10
2023-04-16T14:16:35.113Z,91.00
2023-04-16T14:19:10.603Z,90.90
2023-04-16T14:21:45.850Z,91.10
2023-04-16T14:24:20.774Z,91.00
2023-04-16T14:26:55.691Z,91.10
2023-04-16T14:29:31.014Z,91.00
2023-04-16T14:32:06.763Z,90.90
2023-04-16T14:34:41.785Z,90.90
2023-04-16T14:37:17.930Z,91.00
2023-04-16T14:39:52.813Z,91.00
2023-04-16T14:42:27.816Z,90.90
2023-04-16T14:45:06.372Z,90.90
2023-04-16T14:47:45.892Z,90.80
2023-04-16T14:50:21.184Z,90.80
2023-04-16T14:52:56.438Z,90.70
2023-04-16T14:55:32.171Z,90.60
2023-04-16T14:58:07.034Z,90.60
2023-04-16T15:00:42.059Z,90.80
2023-04-16T15:03:17.286Z,90.80
2023-04-16T15:05:55.776Z,90.80
2023-04-16T15:08:31.381Z,91.00
2023-04-16T15:11:06.223Z,90.90
2023-04-16T15:13:41.069Z,90.80
2023-04-16T15:16:16.132Z,90.60
2023-04-16T15:18:51.489Z,90.80
2023-04-16T15:21:27.882Z,90.80
2023-04-16T15:24:03.010Z,90.70
2023-04-16T15:26:38.049Z,90.70
2023-04-16T15:29:13.125Z,90.80
2023-04-16T15:31:48.411Z,90.70
2023-04-16T15:34:23.369Z,90.70
2023-04-16T15:36:58.238Z,90.80
2023-04-16T15:39:33.081Z,90.90
2023-04-16T15:42:08.361Z,90.90
2023-04-16T15:44:43.693Z,91.10
2023-04-16T15:47:18.560Z,91.10
2023-04-16T15:49:53.523Z,91.00
2023-04-16T15:52:28.402Z,91.10
2023-04-16T15:55:04.366Z,90.90
2023-04-16T15:57:39.623Z,91.00
2023-04-16T16:00:17.039Z,91.20
2023-04-16T16:02:52.549Z,91.30
2023-04-16T16:05:27.610Z,91.20
2023-04-16T16:08:02.613Z,91.20
2023-04-16T16:10:37.599Z,91.20
2023-04-16T16:13:14.075Z,91.30
2023-04-16T16:15:50.645Z,91.20
2023-04-16T16:18:25.553Z,91.20
2023-04-16T16:21:00.429Z,91.20
2023-04-16T16:23:35.296Z,91.20
2023-04-16T16:26:10.129Z,91.40
2023-04-16T16:28:45.536Z,91.50
2023-04-16T16:31:20.809Z,91.40
2023-04-16T16:33:55.789Z,91.30
2023-04-16T16:36:32.253Z,91.40
2023-04-16T16:39:07.123Z,91.20
2023-04-16T16:41:42.128Z,91.20
2023-04-16T16:44:17.220Z,91.30
2023-04-16T16:46:52.106Z,91.20
2023-04-16T16:49:26.943Z,91.30
2023-04-16T16:52:01.814Z,91.30
2023-04-16T16:54:36.981Z,91.20
2023-04-16T16:57:12.666Z,91.10
2023-04-16T16:59:48.659Z,91.00
2023-04-16T17:02:23.972Z,91.20
2023-04-16T17:04:59.371Z,91.00
2023-04-16T17:07:34.570Z,90.90
2023-04-16T17:10:19.926Z,91.00
2023-04-16T17:12:54.775Z,90.90
2023-04-16T17:15:29.633Z,91.10
2023-04-16T17:18:04.843Z,91.00
2023-04-16T17:20:39.732Z,91.10
2023-04-16T17:23:14.844Z,91.10
2023-04-16T17:25:50.650Z,90.90
2023-04-16T17:28:26.180Z,90.90
2023-04-16T17:31:01.939Z,91.00
2023-04-16T17:33:38.043Z,90.90
2023-04-16T17:36:13.077Z,90.90
2023-04-16T17:38:47.910Z,91.10
2023-04-16T17:41:23.119Z,91.10
2023-04-16T17:43:57.935Z,91.30
2023-04-16T17:46:32.842Z,91.30
2023-04-16T17:49:07.707Z,91.40
2023-04-16T17:51:44.497Z,91.40
2023-04-16T17:54:19.387Z,91.40
2023-04-16T17:56:54.250Z,91.40
2023-04-16T17:59:29.123Z,91.30
2023-04-16T18:02:04.067Z,91.30
2023-04-16T18:04:39.212Z,91.20
2023-04-16T18:07:14.672Z,91.20
2023-04-16T18:09:49.692Z,91.10
2023-04-16T18:12:24.588Z,91.10
2023-04-16T18:14:59.634Z,91.10
2023-04-16T18:17:34.965Z,91.10
2023-04-16T18:20:11.620Z,90.90
2023-04-16T18:22:46.601Z,91.00
2023-04-16T18:25:32.251Z,91.10
2023-04-16T18:28:09.801Z,91.10
2023-04-16T18:30:44.776Z,91.10
2023-04-16T18:33:48.805Z,91.10
2023-04-16T18:36:14.836Z,91.10
2023-04-16T18:39:00.136Z,91.10
2023-04-16T18:41:36.528Z,91.10
2023-04-16T18:44:11.455Z,90.90
2023-04-16T18:46:46.670Z,91.10
2023-04-16T18:49:21.674Z,91.10
2023-04-16T18:51:56.569Z,91.00
2023-04-16T18:54:31.553Z,91.10
2023-04-16T18:57:06.847Z,91.00
2023-04-16T18:59:41.881Z,90.90
2023-04-16T19:02:16.882Z,91.00
2023-04-16T19:04:51.815Z,90.90
2023-04-16T19:07:26.853Z,91.00
2023-04-16T19:10:05.208Z,90.90
2023-04-16T19:12:40.445Z,90.80
2023-04-16T19:15:15.696Z,90.90
2023-04-16T19:17:51.784Z,90.80
2023-04-16T19:20:27.033Z,90.80
2023-04-16T19:23:05.668Z,90.80
2023-04-16T19:25:40.941Z,90.90
2023-04-16T19:28:16.996Z,91.00
2023-04-16T19:30:53.268Z,90.80
2023-04-16T19:33:28.198Z,90.80
2023-04-16T19:36:03.473Z,90.80
2023-04-16T19:38:38.370Z,90.80
2023-04-16T19:41:13.283Z,90.90
2023-04-16T19:43:48.250Z,90.90
2023-04-16T19:46:23.712Z,91.00
2023-04-16T19:48:58.708Z,91.10
2023-04-16T19:51:33.738Z,91.00
2023-04-16T19:54:09.002Z,90.90
2023-04-16T19:56:43.974Z,90.90
2023-04-16T19:59:19.197Z,90.90
2023-04-16T20:01:54.287Z,90.70
2023-04-16T20:04:29.273Z,90.80
2023-04-16T20:07:04.496Z,90.90
2023-04-16T20:09:39.461Z,90.90
2023-04-16T20:12:14.589Z,91.00
2023-04-16T20:14:49.567Z,90.90
2023-04-16T20:17:24.443Z,90.90
2023-04-16T20:20:00.948Z,91.00
2023-04-16T20:22:42.790Z,91.00
2023-04-16T20:25:21.530Z,90.90
2023-04-16T20:27:56.507Z,90.90
2023-04-16T20:30:38.641Z,90.90
2023-04-16T20:33:13.664Z,91.00
2023-04-16T20:35:50.819Z,90.90
2023-04-16T20:38:25.978Z,90.90
2023-04-16T20:41:10.621Z,90.70
2023-04-16T20:43:45.897Z,90.80
2023-04-16T20:46:25.836Z,90.90
2023-04-16T20:49:01.195Z,90.90
2023-04-16T20:51:38.391Z,90.90
2023-04-16T20:54:13.940Z,90.60
2023-04-16T20:56:50.283Z,90.70
2023-04-16T20:59:25.727Z,90.60
2023-04-16T21:02:00.832Z,90.70
2023-04-16T21:04:35.966Z,90.70
2023-04-16T21:07:10.971Z,90.70
2023-04-16T21:09:45.873Z,90.90
2023-04-16T21:12:21.081Z,90.60
2023-04-16T21:14:57.136Z,90.50
2023-04-16T21:17:32.142Z,90.60
2023-04-16T21:20:10.672Z,90.80
2023-04-16T21:22:45.632Z,90.60
2023-04-16T21:25:20.481Z,90.70
2023-04-16T21:27:55.788Z,90.50
2023-04-16T21:30:30.840Z,90.40
2023-04-16T21:33:06.005Z,90.50
2023-04-16T21:35:41.185Z,90.60
2023-04-16T21:38:16.334Z,90.50
2023-04-16T21:40:53.928Z,90.60
2023-04-16T21:43:30.572Z,90.60
2023-04-16T21:46:05.480Z,90.60
2023-04-16T21:48:40.502Z,90.60
2023-04-16T21:51:15.706Z,90.60
2023-04-16T21:53:50.578Z,90.50
2023-04-16T21:56:25.922Z,90.60
2023-04-16T21:59:00.989Z,90.50
2023-04-16T22:01:35.879Z,90.50
2023-04-16T22:04:12.168Z,90.50
2023-04-16T22:06:47.116Z,90.50
2023-04-16T22:09:24.866Z,90.40
2023-04-16T22:12:00.332Z,90.50
2023-04-16T22:14:35.169Z,90.60
2023-04-16T22:17:10.057Z,90.50
2023-04-16T22:19:44.991Z,90.50
2023-04-16T22:22:21.668Z,90.50
2023-04-16T22:24:56.745Z,90.60
2023-04-16T22:27:31.734Z,90.50
2023-04-16T22:30:08.378Z,90.50
2023-04-16T22:32:43.302Z,90.20
2023-04-16T22:35:18.368Z,90.30
2023-04-16T22:37:53.230Z,90.40
2023-04-16T22:40:30.593Z,90.40
2023-04-16T22:43:05.583Z,90.40
2023-04-16T22:45:41.100Z,90.30
2023-04-16T22:48:16.330Z,90.30
2023-04-16T22:50:51.223Z,90.30
2023-04-16T22:53:27.223Z,90.40
2023-04-16T22:56:02.280Z,90.30
2023-04-16T22:58:37.128Z,90.30
2023-04-16T23:01:12.819Z,90.30
2023-04-16T23:03:47.793Z,90.30
2023-04-16T23:06:22.759Z,90.20
2023-04-16T23:08:57.618Z,90.30
2023-04-16T23:11:32.462Z,90.30
2023-04-16T23:14:08.293Z,90.30
2023-04-16T23:16:43.174Z,90.20
2023-04-16T23:19:18.157Z,90.20
2023-04-16T23:21:53.057Z,90.10
2023-04-16T23:24:27.927Z,90.00
2023-04-16T23:27:02.895Z,90.10
2023-04-16T23:29:37.740Z,90.20
2023-04-16T23:32:12.619Z,90.10
2023-04-16T23:34:47.503Z,90.10
2023-04-16T23:37:22.358Z,90.10
2023-04-16T23:39:57.307Z,89.40
2023-04-16T23:42:32.166Z,90.00
2023-04-16T23:45:08.167Z,90.00
2023-04-16T23:47:43.140Z,90.10
2023-04-16T23:50:18.123Z,90.00
2023-04-16T23:52:52.966Z,89.90
2023-04-16T23:55:27.957Z,89.70
2023-04-16T23:58:02.882Z,90.00
